sensor_id;sensor_type;location;lat;lon;timestamp;temperature;humidity
4530;DHT22;2277;51.626;7.516;2022-08-30T00:01:31;22.30;99.90
4530;DHT22;2277;51.626;7.516;2022-08-30T00:03:59;22.40;99.90
4530;DHT22;2277;51.626;7.516;2022-08-30T00:06:26;22.40;99.90
4530;DHT22;2277;51.626;7.516;2022-08-30T00:08:54;22.30;99.90
4530;DHT22;2277;51.626;7.516;2022-08-30T00:11:23;22.30;99.90
4530;DHT22;2277;51.626;7.516;2022-08-30T00:13:52;22.30;99.90
4530;DHT22;2277;51.626;7.516;2022-08-30T00:16:20;22.30;99.90
4530;DHT22;2277;51.626;7.516;2022-08-30T00:18:47;22.30;99.90
4530;DHT22;2277;51.626;7.516;2022-08-30T00:21:14;22.30;99.90
4530;DHT22;2277;51.626;7.516;2022-08-30T00:23:40;22.20;99.90
4530;DHT22;2277;51.626;7.516;2022-08-30T00:26:06;22.20;99.90
4530;DHT22;2277;51.626;7.516;2022-08-30T00:28:32;22.20;99.90
4530;DHT22;2277;51.626;7.516;2022-08-30T00:31:02;22.20;99.90
4530;DHT22;2277;51.626;7.516;2022-08-30T00:33:28;22.00;99.90
4530;DHT22;2277;51.626;7.516;2022-08-30T00:35:54;22.00;99.90
4530;DHT22;2277;51.626;7.516;2022-08-30T00:38:20;22.00;99.90
4530;DHT22;2277;51.626;7.516;2022-08-30T00:40:48;22.00;99.90
4530;DHT22;2277;51.626;7.516;2022-08-30T00:43:25;22.00;99.90
4530;DHT22;2277;51.626;7.516;2022-08-30T00:45:51;21.90;99.90
4530;DHT22;2277;51.626;7.516;2022-08-30T00:48:17;22.00;99.90
4530;DHT22;2277;51.626;7.516;2022-08-30T00:50:47;21.90;99.90
4530;DHT22;2277;51.626;7.516;2022-08-30T00:53:19;21.90;99.90
4530;DHT22;2277;51.626;7.516;2022-08-30T00:55:46;21.90;99.90
4530;DHT22;2277;51.626;7.516;2022-08-30T00:58:17;21.90;99.90
4530;DHT22;2277;51.626;7.516;2022-08-30T01:00:48;21.80;99.90
4530;DHT22;2277;51.626;7.516;2022-08-30T01:03:13;21.80;99.90
4530;DHT22;2277;51.626;7.516;2022-08-30T01:05:40;21.80;99.90
4530;DHT22;2277;51.626;7.516;2022-08-30T01:08:06;21.70;99.90
4530;DHT22;2277;51.626;7.516;2022-08-30T01:10:33;21.60;99.90
4530;DHT22;2277;51.626;7.516;2022-08-30T01:13:00;21.60;99.90
4530;DHT22;2277;51.626;7.516;2022-08-30T01:15:26;21.60;99.90
4530;DHT22;2277;51.626;7.516;2022-08-30T01:17:51;21.60;99.90
4530;DHT22;2277;51.626;7.516;2022-08-30T01:20:26;21.50;99.90
4530;DHT22;2277;51.626;7.516;2022-08-30T01:25:29;21.60;99.90
4530;DHT22;2277;51.626;7.516;2022-08-30T01:28:02;21.50;99.90
4530;DHT22;2277;51.626;7.516;2022-08-30T01:30:29;21.50;99.90
4530;DHT22;2277;51.626;7.516;2022-08-30T01:33:00;21.60;99.90
4530;DHT22;2277;51.626;7.516;2022-08-30T01:35:27;21.50;99.90
4530;DHT22;2277;51.626;7.516;2022-08-30T01:37:53;21.50;99.90
4530;DHT22;2277;51.626;7.516;2022-08-30T01:40:19;21.50;99.90
4530;DHT22;2277;51.626;7.516;2022-08-30T01:42:44;21.50;99.90
4530;DHT22;2277;51.626;7.516;2022-08-30T01:45:11;21.50;99.90
4530;DHT22;2277;51.626;7.516;2022-08-30T01:47:38;21.50;99.90
4530;DHT22;2277;51.626;7.516;2022-08-30T01:50:06;21.50;99.90
4530;DHT22;2277;51.626;7.516;2022-08-30T01:52:32;21.50;99.90
4530;DHT22;2277;51.626;7.516;2022-08-30T01:54:58;21.50;99.90
4530;DHT22;2277;51.626;7.516;2022-08-30T01:57:24;21.50;99.90
4530;DHT22;2277;51.626;7.516;2022-08-30T01:59:51;21.50;99.90
4530;DHT22;2277;51.626;7.516;2022-08-30T02:02:20;21.50;99.90
4530;DHT22;2277;51.626;7.516;2022-08-30T02:04:48;21.50;99.90
4530;DHT22;2277;51.626;7.516;2022-08-30T02:07:14;21.40;99.90
4530;DHT22;2277;51.626;7.516;2022-08-30T02:09:40;21.40;99.90
4530;DHT22;2277;51.626;7.516;2022-08-30T02:12:06;21.40;99.90
4530;DHT22;2277;51.626;7.516;2022-08-30T02:14:34;21.40;99.90
4530;DHT22;2277;51.626;7.516;2022-08-30T02:17:00;21.40;99.90
4530;DHT22;2277;51.626;7.516;2022-08-30T02:19:27;21.30;99.90
4530;DHT22;2277;51.626;7.516;2022-08-30T02:21:52;21.20;99.90
4530;DHT22;2277;51.626;7.516;2022-08-30T02:24:18;21.20;99.90
4530;DHT22;2277;51.626;7.516;2022-08-30T02:26:43;21.10;99.90
4530;DHT22;2277;51.626;7.516;2022-08-30T02:29:09;21.10;99.90
4530;DHT22;2277;51.626;7.516;2022-08-30T02:31:35;21.10;99.90
4530;DHT22;2277;51.626;7.516;2022-08-30T02:34:01;21.10;99.90
4530;DHT22;2277;51.626;7.516;2022-08-30T02:36:26;21.10;99.90
4530;DHT22;2277;51.626;7.516;2022-08-30T02:38:52;21.00;99.90
4530;DHT22;2277;51.626;7.516;2022-08-30T02:41:18;21.00;99.90
4530;DHT22;2277;51.626;7.516;2022-08-30T02:43:44;21.00;99.90
4530;DHT22;2277;51.626;7.516;2022-08-30T02:46:10;21.00;99.90
4530;DHT22;2277;51.626;7.516;2022-08-30T02:48:36;20.90;99.90
4530;DHT22;2277;51.626;7.516;2022-08-30T02:51:08;20.90;99.90
4530;DHT22;2277;51.626;7.516;2022-08-30T02:53:35;20.80;99.90
4530;DHT22;2277;51.626;7.516;2022-08-30T02:56:01;20.80;99.90
4530;DHT22;2277;51.626;7.516;2022-08-30T02:58:26;20.70;99.90
4530;DHT22;2277;51.626;7.516;2022-08-30T03:00:52;20.70;99.90
4530;DHT22;2277;51.626;7.516;2022-08-30T03:03:18;20.70;99.90
4530;DHT22;2277;51.626;7.516;2022-08-30T03:05:43;20.60;99.90
4530;DHT22;2277;51.626;7.516;2022-08-30T03:08:09;20.60;99.90
4530;DHT22;2277;51.626;7.516;2022-08-30T03:10:35;20.60;99.90
4530;DHT22;2277;51.626;7.516;2022-08-30T03:13:04;20.60;99.90
4530;DHT22;2277;51.626;7.516;2022-08-30T03:15:32;20.50;99.90
4530;DHT22;2277;51.626;7.516;2022-08-30T03:17:58;20.50;99.90
4530;DHT22;2277;51.626;7.516;2022-08-30T03:20:24;20.50;99.90
4530;DHT22;2277;51.626;7.516;2022-08-30T03:22:50;20.40;99.90
4530;DHT22;2277;51.626;7.516;2022-08-30T03:25:16;20.50;99.90
4530;DHT22;2277;51.626;7.516;2022-08-30T03:27:42;20.40;99.90
4530;DHT22;2277;51.626;7.516;2022-08-30T03:30:08;20.40;99.90
4530;DHT22;2277;51.626;7.516;2022-08-30T03:35:56;20.40;99.90
4530;DHT22;2277;51.626;7.516;2022-08-30T03:38:22;20.40;99.90
4530;DHT22;2277;51.626;7.516;2022-08-30T03:40:48;20.40;99.90
4530;DHT22;2277;51.626;7.516;2022-08-30T03:43:14;20.30;99.90
4530;DHT22;2277;51.626;7.516;2022-08-30T03:45:40;20.30;99.90
4530;DHT22;2277;51.626;7.516;2022-08-30T03:48:05;20.30;99.90
4530;DHT22;2277;51.626;7.516;2022-08-30T03:50:31;20.20;99.90
4530;DHT22;2277;51.626;7.516;2022-08-30T03:52:57;20.20;99.90
4530;DHT22;2277;51.626;7.516;2022-08-30T03:55:25;20.20;99.90
4530;DHT22;2277;51.626;7.516;2022-08-30T03:57:52;20.20;99.90
4530;DHT22;2277;51.626;7.516;2022-08-30T04:00:19;20.10;99.90
4530;DHT22;2277;51.626;7.516;2022-08-30T04:02:45;20.10;99.90
4530;DHT22;2277;51.626;7.516;2022-08-30T04:05:11;20.10;99.90
4530;DHT22;2277;51.626;7.516;2022-08-30T04:07:37;20.10;99.90
4530;DHT22;2277;51.626;7.516;2022-08-30T04:10:05;20.10;99.90
4530;DHT22;2277;51.626;7.516;2022-08-30T04:12:31;20.00;99.90
4530;DHT22;2277;51.626;7.516;2022-08-30T04:14:57;20.00;99.90
4530;DHT22;2277;51.626;7.516;2022-08-30T04:17:22;20.00;99.90
4530;DHT22;2277;51.626;7.516;2022-08-30T04:19:48;20.00;99.90
4530;DHT22;2277;51.626;7.516;2022-08-30T04:22:14;19.90;99.90
4530;DHT22;2277;51.626;7.516;2022-08-30T04:24:39;19.90;99.90
4530;DHT22;2277;51.626;7.516;2022-08-30T04:27:07;19.80;99.90
4530;DHT22;2277;51.626;7.516;2022-08-30T04:29:34;19.80;99.90
4530;DHT22;2277;51.626;7.516;2022-08-30T04:32:00;19.80;99.90
4530;DHT22;2277;51.626;7.516;2022-08-30T04:34:25;19.80;99.90
4530;DHT22;2277;51.626;7.516;2022-08-30T04:36:51;19.80;99.90
4530;DHT22;2277;51.626;7.516;2022-08-30T04:39:17;19.80;99.90
4530;DHT22;2277;51.626;7.516;2022-08-30T04:41:43;19.80;99.90
4530;DHT22;2277;51.626;7.516;2022-08-30T04:44:09;19.80;99.90
4530;DHT22;2277;51.626;7.516;2022-08-30T04:46:35;19.70;99.90
4530;DHT22;2277;51.626;7.516;2022-08-30T04:49:01;19.70;99.90
4530;DHT22;2277;51.626;7.516;2022-08-30T04:51:27;19.70;99.90
4530;DHT22;2277;51.626;7.516;2022-08-30T04:53:52;19.70;99.90
4530;DHT22;2277;51.626;7.516;2022-08-30T04:56:20;19.70;99.90
4530;DHT22;2277;51.626;7.516;2022-08-30T04:58:48;19.60;99.90
4530;DHT22;2277;51.626;7.516;2022-08-30T05:01:18;19.60;99.90
4530;DHT22;2277;51.626;7.516;2022-08-30T05:03:45;19.60;99.90
4530;DHT22;2277;51.626;7.516;2022-08-30T05:06:12;19.50;99.90
4530;DHT22;2277;51.626;7.516;2022-08-30T05:08:37;19.50;99.90
4530;DHT22;2277;51.626;7.516;2022-08-30T05:11:05;19.50;99.90
4530;DHT22;2277;51.626;7.516;2022-08-30T05:13:31;19.50;99.90
4530;DHT22;2277;51.626;7.516;2022-08-30T05:15:57;19.50;99.90
4530;DHT22;2277;51.626;7.516;2022-08-30T05:18:23;19.50;99.90
4530;DHT22;2277;51.626;7.516;2022-08-30T05:20:49;19.40;99.90
4530;DHT22;2277;51.626;7.516;2022-08-30T05:23:14;19.40;99.90
4530;DHT22;2277;51.626;7.516;2022-08-30T05:25:41;19.40;99.90
4530;DHT22;2277;51.626;7.516;2022-08-30T05:28:07;19.40;99.90
4530;DHT22;2277;51.626;7.516;2022-08-30T05:30:35;19.40;99.90
4530;DHT22;2277;51.626;7.516;2022-08-30T05:33:01;19.40;99.90
4530;DHT22;2277;51.626;7.516;2022-08-30T05:35:27;19.40;99.90
4530;DHT22;2277;51.626;7.516;2022-08-30T05:37:53;19.40;99.90
4530;DHT22;2277;51.626;7.516;2022-08-30T05:40:19;19.40;99.90
4530;DHT22;2277;51.626;7.516;2022-08-30T05:42:45;19.40;99.90
4530;DHT22;2277;51.626;7.516;2022-08-30T05:45:13;19.40;99.90
4530;DHT22;2277;51.626;7.516;2022-08-30T05:47:39;19.30;99.90
4530;DHT22;2277;51.626;7.516;2022-08-30T05:50:06;19.30;99.90
4530;DHT22;2277;51.626;7.516;2022-08-30T05:55:53;19.30;99.90
4530;DHT22;2277;51.626;7.516;2022-08-30T05:58:19;19.40;99.90
4530;DHT22;2277;51.626;7.516;2022-08-30T06:00:45;19.30;99.90
4530;DHT22;2277;51.626;7.516;2022-08-30T06:03:11;19.30;99.90
4530;DHT22;2277;51.626;7.516;2022-08-30T06:08:59;19.40;99.90
4530;DHT22;2277;51.626;7.516;2022-08-30T06:11:25;19.40;99.90
4530;DHT22;2277;51.626;7.516;2022-08-30T06:13:52;19.40;99.90
4530;DHT22;2277;51.626;7.516;2022-08-30T06:16:20;19.40;99.90
4530;DHT22;2277;51.626;7.516;2022-08-30T06:18:46;19.30;99.90
4530;DHT22;2277;51.626;7.516;2022-08-30T06:23:42;19.30;99.90
4530;DHT22;2277;51.626;7.516;2022-08-30T06:26:09;19.40;99.90
4530;DHT22;2277;51.626;7.516;2022-08-30T06:28:35;19.50;99.90
4530;DHT22;2277;51.626;7.516;2022-08-30T06:34:23;19.70;99.90
4530;DHT22;2277;51.626;7.516;2022-08-30T06:36:48;19.90;99.90
4530;DHT22;2277;51.626;7.516;2022-08-30T06:39:14;19.90;99.90
4530;DHT22;2277;51.626;7.516;2022-08-30T06:41:41;20.10;99.90
4530;DHT22;2277;51.626;7.516;2022-08-30T06:44:07;20.20;99.90
4530;DHT22;2277;51.626;7.516;2022-08-30T06:46:36;20.30;99.90
4530;DHT22;2277;51.626;7.516;2022-08-30T06:49:03;20.50;99.90
4530;DHT22;2277;51.626;7.516;2022-08-30T06:51:36;20.60;99.90
4530;DHT22;2277;51.626;7.516;2022-08-30T06:54:02;20.60;99.90
4530;DHT22;2277;51.626;7.516;2022-08-30T06:56:28;20.60;99.90
4530;DHT22;2277;51.626;7.516;2022-08-30T06:58:54;20.80;99.90
4530;DHT22;2277;51.626;7.516;2022-08-30T07:01:23;20.90;99.90
4530;DHT22;2277;51.626;7.516;2022-08-30T07:03:50;21.10;99.90
4530;DHT22;2277;51.626;7.516;2022-08-30T07:06:16;21.30;99.90
4530;DHT22;2277;51.626;7.516;2022-08-30T07:08:43;21.50;99.90
4530;DHT22;2277;51.626;7.516;2022-08-30T07:11:09;21.60;99.90
4530;DHT22;2277;51.626;7.516;2022-08-30T07:13:36;21.80;99.90
4530;DHT22;2277;51.626;7.516;2022-08-30T07:16:09;21.90;99.90
4530;DHT22;2277;51.626;7.516;2022-08-30T07:18:35;22.00;99.90
4530;DHT22;2277;51.626;7.516;2022-08-30T07:21:18;22.20;99.90
4530;DHT22;2277;51.626;7.516;2022-08-30T07:23:46;22.40;99.90
4530;DHT22;2277;51.626;7.516;2022-08-30T07:26:15;22.60;99.90
4530;DHT22;2277;51.626;7.516;2022-08-30T07:28:43;22.70;99.90
4530;DHT22;2277;51.626;7.516;2022-08-30T07:31:10;22.80;99.90
4530;DHT22;2277;51.626;7.516;2022-08-30T07:33:37;22.80;99.90
4530;DHT22;2277;51.626;7.516;2022-08-30T07:36:05;22.90;99.90
4530;DHT22;2277;51.626;7.516;2022-08-30T07:38:31;23.10;99.90
4530;DHT22;2277;51.626;7.516;2022-08-30T07:40:57;23.20;99.90
4530;DHT22;2277;51.626;7.516;2022-08-30T07:43:26;23.30;99.90
4530;DHT22;2277;51.626;7.516;2022-08-30T07:45:51;23.50;99.90
4530;DHT22;2277;51.626;7.516;2022-08-30T07:48:17;23.60;99.90
4530;DHT22;2277;51.626;7.516;2022-08-30T07:50:44;23.70;99.90
4530;DHT22;2277;51.626;7.516;2022-08-30T07:53:10;23.80;99.90
4530;DHT22;2277;51.626;7.516;2022-08-30T07:55:36;23.90;99.90
4530;DHT22;2277;51.626;7.516;2022-08-30T07:58:02;24.10;99.90
4530;DHT22;2277;51.626;7.516;2022-08-30T08:00:28;23.80;99.90
4530;DHT22;2277;51.626;7.516;2022-08-30T08:02:53;24.00;99.90
4530;DHT22;2277;51.626;7.516;2022-08-30T08:05:19;24.20;99.90
4530;DHT22;2277;51.626;7.516;2022-08-30T08:07:45;24.30;99.90
4530;DHT22;2277;51.626;7.516;2022-08-30T08:10:11;24.40;99.90
4530;DHT22;2277;51.626;7.516;2022-08-30T08:12:38;24.60;99.90
4530;DHT22;2277;51.626;7.516;2022-08-30T08:15:05;24.70;99.90
4530;DHT22;2277;51.626;7.516;2022-08-30T08:17:31;24.70;99.90
4530;DHT22;2277;51.626;7.516;2022-08-30T08:19:56;24.90;99.90
4530;DHT22;2277;51.626;7.516;2022-08-30T08:22:22;25.00;99.90
4530;DHT22;2277;51.626;7.516;2022-08-30T08:24:48;25.00;99.90
4530;DHT22;2277;51.626;7.516;2022-08-30T08:27:13;25.10;99.90
4530;DHT22;2277;51.626;7.516;2022-08-30T08:29:39;25.20;99.90
4530;DHT22;2277;51.626;7.516;2022-08-30T08:32:05;25.30;99.90
4530;DHT22;2277;51.626;7.516;2022-08-30T08:34:30;25.50;99.90
4530;DHT22;2277;51.626;7.516;2022-08-30T08:36:56;25.60;99.90
4530;DHT22;2277;51.626;7.516;2022-08-30T08:39:22;25.80;99.90
4530;DHT22;2277;51.626;7.516;2022-08-30T08:42:12;26.00;99.90
4530;DHT22;2277;51.626;7.516;2022-08-30T08:44:59;26.10;99.90
4530;DHT22;2277;51.626;7.516;2022-08-30T08:47:27;26.30;99.90
4530;DHT22;2277;51.626;7.516;2022-08-30T08:50:01;26.40;99.90
4530;DHT22;2277;51.626;7.516;2022-08-30T08:55:46;26.70;99.90
4530;DHT22;2277;51.626;7.516;2022-08-30T08:58:25;26.90;99.90
4530;DHT22;2277;51.626;7.516;2022-08-30T09:00:51;27.10;99.90
4530;DHT22;2277;51.626;7.516;2022-08-30T09:03:22;27.00;99.90
4530;DHT22;2277;51.626;7.516;2022-08-30T09:05:49;26.60;99.90
4530;DHT22;2277;51.626;7.516;2022-08-30T09:08:17;26.30;99.90
4530;DHT22;2277;51.626;7.516;2022-08-30T09:10:58;26.20;99.90
4530;DHT22;2277;51.626;7.516;2022-08-30T09:13:25;26.30;99.90
4530;DHT22;2277;51.626;7.516;2022-08-30T09:15:53;26.60;99.90
4530;DHT22;2277;51.626;7.516;2022-08-30T09:18:18;26.80;99.90
4530;DHT22;2277;51.626;7.516;2022-08-30T09:20:48;27.10;99.90
4530;DHT22;2277;51.626;7.516;2022-08-30T09:26:09;27.00;99.90
4530;DHT22;2277;51.626;7.516;2022-08-30T09:28:46;27.20;99.90
4530;DHT22;2277;51.626;7.516;2022-08-30T09:31:26;27.10;99.90
4530;DHT22;2277;51.626;7.516;2022-08-30T09:34:00;26.70;99.90
4530;DHT22;2277;51.626;7.516;2022-08-30T09:36:29;26.80;99.90
4530;DHT22;2277;51.626;7.516;2022-08-30T09:41:41;27.20;99.90
4530;DHT22;2277;51.626;7.516;2022-08-30T09:46:51;27.40;99.90
4530;DHT22;2277;51.626;7.516;2022-08-30T09:49:40;27.50;99.90
4530;DHT22;2277;51.626;7.516;2022-08-30T09:55:08;27.70;99.90
4530;DHT22;2277;51.626;7.516;2022-08-30T10:00:23;28.00;99.90
4530;DHT22;2277;51.626;7.516;2022-08-30T10:10:48;28.30;99.90
4530;DHT22;2277;51.626;7.516;2022-08-30T10:16:14;28.70;99.90
4530;DHT22;2277;51.626;7.516;2022-08-30T10:21:51;29.00;99.90
4530;DHT22;2277;51.626;7.516;2022-08-30T10:24:22;29.00;99.90
4530;DHT22;2277;51.626;7.516;2022-08-30T10:26:56;29.10;99.90
4530;DHT22;2277;51.626;7.516;2022-08-30T10:29:45;29.10;99.90
4530;DHT22;2277;51.626;7.516;2022-08-30T10:32:18;29.20;99.90
4530;DHT22;2277;51.626;7.516;2022-08-30T10:34:53;29.50;99.90
4530;DHT22;2277;51.626;7.516;2022-08-30T10:37:25;29.70;99.90
4530;DHT22;2277;51.626;7.516;2022-08-30T10:40:12;29.90;99.90
4530;DHT22;2277;51.626;7.516;2022-08-30T10:43:00;30.10;99.90
4530;DHT22;2277;51.626;7.516;2022-08-30T10:45:28;30.30;99.20
4530;DHT22;2277;51.626;7.516;2022-08-30T10:48:06;30.50;97.70
4530;DHT22;2277;51.626;7.516;2022-08-30T10:50:40;30.60;97.20
4530;DHT22;2277;51.626;7.516;2022-08-30T10:53:17;30.60;95.40
4530;DHT22;2277;51.626;7.516;2022-08-30T10:55:59;30.30;94.70
4530;DHT22;2277;51.626;7.516;2022-08-30T10:58:26;30.40;95.10
4530;DHT22;2277;51.626;7.516;2022-08-30T11:14:39;30.50;92.70
4530;DHT22;2277;51.626;7.516;2022-08-30T11:19:49;31.30;92.00
4530;DHT22;2277;51.626;7.516;2022-08-30T11:22:27;31.50;92.90
4530;DHT22;2277;51.626;7.516;2022-08-30T11:25:15;31.70;90.50
4530;DHT22;2277;51.626;7.516;2022-08-30T11:28:01;31.70;91.40
4530;DHT22;2277;51.626;7.516;2022-08-30T11:35:42;32.20;88.70
4530;DHT22;2277;51.626;7.516;2022-08-30T11:46:34;32.80;84.40
4530;DHT22;2277;51.626;7.516;2022-08-30T11:55:02;33.10;82.40
4530;DHT22;2277;51.626;7.516;2022-08-30T12:00:30;33.30;79.80
4530;DHT22;2277;51.626;7.516;2022-08-30T12:03:02;33.10;78.80
4530;DHT22;2277;51.626;7.516;2022-08-30T12:08:06;33.10;78.50
4530;DHT22;2277;51.626;7.516;2022-08-30T12:10:45;33.10;78.00
4530;DHT22;2277;51.626;7.516;2022-08-30T12:16:03;33.10;75.90
4530;DHT22;2277;51.626;7.516;2022-08-30T12:19:27;33.10;76.20
4530;DHT22;2277;51.626;7.516;2022-08-30T12:21:32;33.20;76.80
4530;DHT22;2277;51.626;7.516;2022-08-30T12:24:24;32.50;73.70
4530;DHT22;2277;51.626;7.516;2022-08-30T12:26:52;32.30;75.00
4530;DHT22;2277;51.626;7.516;2022-08-30T12:29:24;32.60;77.10
4530;DHT22;2277;51.626;7.516;2022-08-30T12:40:18;33.30;76.00
4530;DHT22;2277;51.626;7.516;2022-08-30T12:45:24;33.30;75.00
4530;DHT22;2277;51.626;7.516;2022-08-30T12:48:08;33.50;76.30
4530;DHT22;2277;51.626;7.516;2022-08-30T12:50:45;33.50;75.90
4530;DHT22;2277;51.626;7.516;2022-08-30T13:01:32;33.90;72.50
4530;DHT22;2277;51.626;7.516;2022-08-30T13:04:26;33.80;71.60
4530;DHT22;2277;51.626;7.516;2022-08-30T13:06:58;33.80;70.80
4530;DHT22;2277;51.626;7.516;2022-08-30T13:09:37;33.70;70.30
4530;DHT22;2277;51.626;7.516;2022-08-30T13:12:11;33.70;71.10
4530;DHT22;2277;51.626;7.516;2022-08-30T13:14:44;33.60;70.50
4530;DHT22;2277;51.626;7.516;2022-08-30T13:17:24;33.70;70.00
4530;DHT22;2277;51.626;7.516;2022-08-30T13:20:21;33.70;70.00
4530;DHT22;2277;51.626;7.516;2022-08-30T13:23:08;33.60;69.00
4530;DHT22;2277;51.626;7.516;2022-08-30T13:25:36;33.50;70.70
4530;DHT22;2277;51.626;7.516;2022-08-30T13:28:03;33.50;72.60
4530;DHT22;2277;51.626;7.516;2022-08-30T13:30:30;33.50;68.80
4530;DHT22;2277;51.626;7.516;2022-08-30T13:32:56;33.40;68.80
4530;DHT22;2277;51.626;7.516;2022-08-30T13:35:22;33.40;70.50
4530;DHT22;2277;51.626;7.516;2022-08-30T13:37:48;33.20;69.50
4530;DHT22;2277;51.626;7.516;2022-08-30T13:40:14;33.10;69.40
4530;DHT22;2277;51.626;7.516;2022-08-30T13:42:42;33.10;70.40
4530;DHT22;2277;51.626;7.516;2022-08-30T13:45:12;33.00;70.20
4530;DHT22;2277;51.626;7.516;2022-08-30T13:47:38;32.90;68.70
4530;DHT22;2277;51.626;7.516;2022-08-30T13:50:04;32.90;70.30
4530;DHT22;2277;51.626;7.516;2022-08-30T13:52:30;32.80;70.80
4530;DHT22;2277;51.626;7.516;2022-08-30T13:54:56;32.50;67.40
4530;DHT22;2277;51.626;7.516;2022-08-30T13:57:25;32.50;70.50
4530;DHT22;2277;51.626;7.516;2022-08-30T13:59:51;32.60;71.00
4530;DHT22;2277;51.626;7.516;2022-08-30T14:02:16;32.70;68.40
4530;DHT22;2277;51.626;7.516;2022-08-30T14:04:42;32.80;69.00
4530;DHT22;2277;51.626;7.516;2022-08-30T14:07:08;32.90;68.40
4530;DHT22;2277;51.626;7.516;2022-08-30T14:09:33;33.00;69.10
4530;DHT22;2277;51.626;7.516;2022-08-30T14:11:59;33.00;67.40
4530;DHT22;2277;51.626;7.516;2022-08-30T14:14:25;32.90;69.10
4530;DHT22;2277;51.626;7.516;2022-08-30T14:16:50;32.90;68.50
4530;DHT22;2277;51.626;7.516;2022-08-30T14:19:17;32.70;68.10
4530;DHT22;2277;51.626;7.516;2022-08-30T14:21:44;32.80;69.60
4530;DHT22;2277;51.626;7.516;2022-08-30T14:24:10;32.90;69.70
4530;DHT22;2277;51.626;7.516;2022-08-30T14:26:42;32.90;68.90
4530;DHT22;2277;51.626;7.516;2022-08-30T14:29:11;32.90;67.60
4530;DHT22;2277;51.626;7.516;2022-08-30T14:31:38;32.70;66.30
4530;DHT22;2277;51.626;7.516;2022-08-30T14:34:05;32.90;68.00
4530;DHT22;2277;51.626;7.516;2022-08-30T14:36:32;32.90;67.10
4530;DHT22;2277;51.626;7.516;2022-08-30T14:38:57;33.00;67.20
4530;DHT22;2277;51.626;7.516;2022-08-30T14:41:23;33.10;67.30
4530;DHT22;2277;51.626;7.516;2022-08-30T14:43:50;33.10;66.50
4530;DHT22;2277;51.626;7.516;2022-08-30T14:46:16;32.80;66.00
4530;DHT22;2277;51.626;7.516;2022-08-30T14:48:42;32.70;65.60
4530;DHT22;2277;51.626;7.516;2022-08-30T14:51:15;32.70;66.10
4530;DHT22;2277;51.626;7.516;2022-08-30T14:53:41;32.70;65.80
4530;DHT22;2277;51.626;7.516;2022-08-30T14:56:09;32.60;65.30
4530;DHT22;2277;51.626;7.516;2022-08-30T14:58:35;32.70;66.80
4530;DHT22;2277;51.626;7.516;2022-08-30T15:01:08;32.70;66.00
4530;DHT22;2277;51.626;7.516;2022-08-30T15:03:35;32.70;65.70
4530;DHT22;2277;51.626;7.516;2022-08-30T15:06:01;32.70;66.00
4530;DHT22;2277;51.626;7.516;2022-08-30T15:08:27;32.70;66.20
4530;DHT22;2277;51.626;7.516;2022-08-30T15:10:53;32.70;64.50
4530;DHT22;2277;51.626;7.516;2022-08-30T15:13:18;32.60;65.90
4530;DHT22;2277;51.626;7.516;2022-08-30T15:15:44;32.50;66.30
4530;DHT22;2277;51.626;7.516;2022-08-30T15:18:10;32.50;66.20
4530;DHT22;2277;51.626;7.516;2022-08-30T15:20:35;32.40;65.60
4530;DHT22;2277;51.626;7.516;2022-08-30T15:23:02;32.20;65.50
4530;DHT22;2277;51.626;7.516;2022-08-30T15:25:27;32.10;65.90
4530;DHT22;2277;51.626;7.516;2022-08-30T15:27:53;32.10;67.10
4530;DHT22;2277;51.626;7.516;2022-08-30T15:30:19;31.80;64.00
4530;DHT22;2277;51.626;7.516;2022-08-30T15:32:45;31.50;65.00
4530;DHT22;2277;51.626;7.516;2022-08-30T15:35:10;31.50;65.20
4530;DHT22;2277;51.626;7.516;2022-08-30T15:37:36;31.60;66.30
4530;DHT22;2277;51.626;7.516;2022-08-30T15:40:04;31.70;67.40
4530;DHT22;2277;51.626;7.516;2022-08-30T15:42:30;31.80;65.10
4530;DHT22;2277;51.626;7.516;2022-08-30T15:44:58;31.80;65.80
4530;DHT22;2277;51.626;7.516;2022-08-30T15:47:23;31.90;65.80
4530;DHT22;2277;51.626;7.516;2022-08-30T15:49:57;31.70;66.40
4530;DHT22;2277;51.626;7.516;2022-08-30T15:52:23;31.60;64.10
4530;DHT22;2277;51.626;7.516;2022-08-30T15:54:49;31.50;65.00
4530;DHT22;2277;51.626;7.516;2022-08-30T15:57:15;31.50;66.20
4530;DHT22;2277;51.626;7.516;2022-08-30T15:59:41;31.50;64.80
4530;DHT22;2277;51.626;7.516;2022-08-30T16:02:07;31.40;65.60
4530;DHT22;2277;51.626;7.516;2022-08-30T16:04:32;31.40;66.20
4530;DHT22;2277;51.626;7.516;2022-08-30T16:06:58;31.40;65.80
4530;DHT22;2277;51.626;7.516;2022-08-30T16:09:24;31.40;66.00
4530;DHT22;2277;51.626;7.516;2022-08-30T16:11:51;31.40;66.60
4530;DHT22;2277;51.626;7.516;2022-08-30T16:14:17;31.40;66.40
4530;DHT22;2277;51.626;7.516;2022-08-30T16:16:43;31.30;65.50
4530;DHT22;2277;51.626;7.516;2022-08-30T16:19:10;31.30;65.60
4530;DHT22;2277;51.626;7.516;2022-08-30T16:21:37;31.00;65.50
4530;DHT22;2277;51.626;7.516;2022-08-30T16:24:06;30.90;66.80
4530;DHT22;2277;51.626;7.516;2022-08-30T16:26:32;30.80;66.80
4530;DHT22;2277;51.626;7.516;2022-08-30T16:28:59;30.70;65.50
4530;DHT22;2277;51.626;7.516;2022-08-30T16:31:27;30.70;66.70
4530;DHT22;2277;51.626;7.516;2022-08-30T16:33:54;30.60;67.10
4530;DHT22;2277;51.626;7.516;2022-08-30T16:36:21;30.60;68.30
4530;DHT22;2277;51.626;7.516;2022-08-30T16:38:48;30.60;66.90
4530;DHT22;2277;51.626;7.516;2022-08-30T16:41:15;30.60;68.10
4530;DHT22;2277;51.626;7.516;2022-08-30T16:43:41;30.60;65.90
4530;DHT22;2277;51.626;7.516;2022-08-30T16:46:10;30.60;66.40
4530;DHT22;2277;51.626;7.516;2022-08-30T16:48:36;30.60;66.70
4530;DHT22;2277;51.626;7.516;2022-08-30T16:51:07;30.50;67.50
4530;DHT22;2277;51.626;7.516;2022-08-30T16:53:34;30.50;68.10
4530;DHT22;2277;51.626;7.516;2022-08-30T16:56:05;30.40;67.80
4530;DHT22;2277;51.626;7.516;2022-08-30T16:58:31;30.40;66.80
4530;DHT22;2277;51.626;7.516;2022-08-30T17:00:57;30.30;66.70
4530;DHT22;2277;51.626;7.516;2022-08-30T17:03:22;30.30;66.80
4530;DHT22;2277;51.626;7.516;2022-08-30T17:05:48;30.20;67.30
4530;DHT22;2277;51.626;7.516;2022-08-30T17:08:13;30.00;67.20
4530;DHT22;2277;51.626;7.516;2022-08-30T17:10:39;29.90;67.20
4530;DHT22;2277;51.626;7.516;2022-08-30T17:13:05;29.80;67.60
4530;DHT22;2277;51.626;7.516;2022-08-30T17:15:31;29.60;68.60
4530;DHT22;2277;51.626;7.516;2022-08-30T17:17:57;29.50;68.40
4530;DHT22;2277;51.626;7.516;2022-08-30T17:20:22;29.40;69.10
4530;DHT22;2277;51.626;7.516;2022-08-30T17:22:50;29.30;69.80
4530;DHT22;2277;51.626;7.516;2022-08-30T17:25:16;29.20;70.30
4530;DHT22;2277;51.626;7.516;2022-08-30T17:27:42;29.10;70.30
4530;DHT22;2277;51.626;7.516;2022-08-30T17:30:08;29.00;70.80
4530;DHT22;2277;51.626;7.516;2022-08-30T17:32:34;28.90;70.80
4530;DHT22;2277;51.626;7.516;2022-08-30T17:34:59;28.80;71.00
4530;DHT22;2277;51.626;7.516;2022-08-30T17:37:25;28.70;71.60
4530;DHT22;2277;51.626;7.516;2022-08-30T17:39:51;28.60;71.50
4530;DHT22;2277;51.626;7.516;2022-08-30T17:42:17;28.50;72.50
4530;DHT22;2277;51.626;7.516;2022-08-30T17:48:05;28.20;73.30
4530;DHT22;2277;51.626;7.516;2022-08-30T17:50:34;28.10;74.40
4530;DHT22;2277;51.626;7.516;2022-08-30T17:53:00;28.00;74.50
4530;DHT22;2277;51.626;7.516;2022-08-30T17:55:25;28.00;74.80
4530;DHT22;2277;51.626;7.516;2022-08-30T17:57:51;27.90;75.00
4530;DHT22;2277;51.626;7.516;2022-08-30T18:00:17;27.80;74.80
4530;DHT22;2277;51.626;7.516;2022-08-30T18:02:44;27.80;75.90
4530;DHT22;2277;51.626;7.516;2022-08-30T18:05:10;27.70;75.70